Time;durP1;ratioP1;P1;durP2;ratioP2;P2;SDS_P1;SDS_P2;PMS_P1;PMS_P2;Temp;Humidity;BMP_temperature;BMP_pressure;BME280_temperature;BME280_humidity;BME280_pressure;Samples;Min_cycle;Max_cycle;Signal;HPM_P1;HPM_P2
2024/03/23 00:00:04;;;;;;;26.67;5.90;;;;;;;6.59;100.00;101439.47;5003027;28;20440;-70
2024/03/23 00:02:31;;;;;;;26.57;5.60;;;;;;;6.85;100.00;101482.09;4976980;28;20464;-71
2024/03/23 00:04:57;;;;;;;24.47;5.13;;;;;;;6.38;100.00;101399.88;4997221;28;20436;-70
2024/03/23 00:07:23;;;;;;;26.60;5.03;;;;;;;6.84;100.00;101468.94;4983090;28;20468;-71
2024/03/23 00:09:50;;;;;;;21.80;4.73;;;;;;;6.84;100.00;101450.28;4998148;28;20443;-70
2024/03/23 00:12:16;;;;;;;26.20;5.00;;;;;;;6.77;100.00;101448.25;4987482;28;20472;-70
2024/03/23 00:14:43;;;;;;;22.20;4.67;;;;;;;6.78;100.00;101449.09;4982609;28;20455;-70
2024/03/23 00:17:11;;;;;;;22.20;5.70;;;;;;;6.73;100.00;101454.06;4979259;28;20468;-70
2024/03/23 00:19:37;;;;;;;17.70;5.03;;;;;;;6.70;100.00;101449.88;4998572;28;20441;-70
2024/03/23 00:22:03;;;;;;;26.07;5.33;;;;;;;6.63;100.00;101453.34;4979935;28;20469;-70
2024/03/23 00:24:30;;;;;;;29.23;4.90;;;;;;;6.74;100.00;101448.56;4985524;28;20528;-70
2024/03/23 00:26:57;;;;;;;20.90;5.20;;;;;;;6.72;100.00;101441.72;4980246;28;20538;-71
2024/03/23 00:29:23;;;;;;;26.87;5.57;;;;;;;6.72;100.00;101439.06;4993003;28;20449;-71
2024/03/23 00:31:50;;;;;;;24.70;5.47;;;;;;;6.89;100.00;101427.47;4980761;28;20961;-70
2024/03/23 00:34:16;;;;;;;18.17;4.33;;;;;;;6.86;100.00;101433.13;4986284;28;20809;-70
2024/03/23 00:36:42;;;;;;;19.73;4.40;;;;;;;6.87;100.00;101434.78;4986395;28;20951;-70
2024/03/23 00:39:09;;;;;;;27.30;5.20;;;;;;;6.69;100.00;101426.03;4984467;28;20445;-71
2024/03/23 00:41:39;;;;;;;31.00;5.90;;;;;;;6.79;100.00;101416.09;4983869;28;20487;-70
2024/03/23 00:44:05;;;;;;;26.70;4.97;;;;;;;6.87;100.00;101412.63;4961225;28;20437;-70
2024/03/23 00:46:32;;;;;;;24.80;4.50;;;;;;;6.79;100.00;101398.25;4987458;28;20445;-71
2024/03/23 00:48:58;;;;;;;19.87;4.43;;;;;;;6.37;100.00;101344.09;4977603;28;20463;-71
2024/03/23 00:51:25;;;;;;;25.00;4.67;;;;;;;6.72;100.00;101415.91;4983178;28;20507;-70
2024/03/23 00:53:50;;;;;;;24.83;4.13;;;;;;;5.83;100.00;101306.94;4985148;28;20539;-70
2024/03/23 00:56:16;;;;;;;24.27;4.03;;;;;;;6.45;100.00;101362.78;4980142;28;20440;-70
2024/03/23 00:58:41;;;;;;;26.57;5.43;;;;;;;5.91;100.00;101290.22;4989407;28;20658;-70
2024/03/23 01:01:06;;;;;;;20.90;5.90;;;;;;;6.80;100.00;101415.09;4977820;28;20190;-70
2024/03/23 01:03:32;;;;;;;20.20;5.10;;;;;;;6.57;100.00;101378.34;4984068;28;20186;-71
2024/03/23 01:06:01;;;;;;;25.77;4.70;;;;;;;6.54;100.00;101383.16;4978394;28;20197;-71
2024/03/23 01:08:27;;;;;;;23.33;4.27;;;;;;;6.62;100.00;101395.66;4986863;28;20367;-71
2024/03/23 01:10:59;;;;;;;26.07;5.43;;;;;;;6.70;100.00;101398.38;4985010;28;21004;-70
2024/03/23 01:13:25;;;;;;;22.93;5.40;;;;;;;6.51;100.00;101348.84;4992857;28;20447;-70
2024/03/23 01:15:54;;;;;;;22.53;5.80;;;;;;;6.33;100.00;101368.41;4986394;28;20459;-70
2024/03/23 01:18:21;;;;;;;29.13;5.20;;;;;;;5.87;100.00;101261.25;4983574;28;20198;-70
2024/03/23 01:20:46;;;;;;;25.40;5.20;;;;;;;5.88;100.00;101254.91;4983339;28;20460;-71
2024/03/23 01:23:12;;;;;;;21.67;5.37;;;;;;;5.81;100.00;101253.03;5004183;28;20832;-70
2024/03/23 01:25:38;;;;;;;21.27;5.30;;;;;;;6.02;100.00;101266.00;4989308;28;20556;-71
2024/03/23 01:28:04;;;;;;;22.93;5.60;;;;;;;5.80;100.00;101243.38;4981736;28;20248;-70
2024/03/23 01:30:30;;;;;;;20.20;4.47;;;;;;;6.03;100.00;101270.34;4997156;28;20267;-70
2024/03/23 01:32:56;;;;;;;20.40;4.30;;;;;;;6.61;100.00;101375.34;4995541;28;20968;-71
2024/03/23 01:35:21;;;;;;;16.80;5.03;;;;;;;6.04;100.00;101264.00;4985060;28;20615;-70
2024/03/23 01:37:47;;;;;;;20.13;5.13;;;;;;;6.26;100.00;101306.06;4987345;28;20185;-71
2024/03/23 01:40:13;;;;;;;22.37;4.67;;;;;;;6.73;100.00;101371.41;4997389;28;20197;-71
2024/03/23 01:42:39;;;;;;;21.40;4.33;;;;;;;6.63;100.00;101357.38;4989086;28;20296;-70
2024/03/23 01:45:09;;;;;;;19.93;4.07;;;;;;;6.18;100.00;101291.88;4986931;28;20433;-71
2024/03/23 01:47:35;;;;;;;25.27;5.27;;;;;;;6.76;100.00;101389.75;4983935;28;21083;-71
2024/03/23 01:50:00;;;;;;;26.03;5.20;;;;;;;6.64;100.00;101361.72;5003861;28;20444;-70
2024/03/23 01:52:30;;;;;;;20.30;4.27;;;;;;;6.69;100.00;101370.06;4984315;28;20970;-70
2024/03/23 01:54:55;;;;;;;21.53;4.37;;;;;;;6.64;100.00;101389.19;4980510;28;20182;-71
2024/03/23 01:57:21;;;;;;;23.83;4.73;;;;;;;6.45;100.00;101358.31;4987768;28;21202;-70
2024/03/23 01:59:48;;;;;;;23.43;4.50;;;;;;;5.79;100.00;101244.38;4986841;28;20185;-70
2024/03/23 02:02:13;;;;;;;23.37;5.50;;;;;;;5.76;100.00;101232.22;4998669;28;20473;-71
2024/03/23 02:04:38;;;;;;;17.47;4.57;;;;;;;5.67;100.00;101209.22;4988453;28;20561;-71
2024/03/23 02:07:06;;;;;;;29.73;4.90;;;;;;;5.70;100.00;101205.38;4982671;28;20206;-70
2024/03/23 02:09:31;;;;;;;25.13;4.73;;;;;;;6.79;100.00;101346.75;4985664;28;20201;-71
2024/03/23 02:11:57;;;;;;;21.33;5.17;;;;;;;5.73;100.00;101231.66;4984340;28;20465;-71
2024/03/23 02:14:23;;;;;;;22.00;4.10;;;;;;;6.47;100.00;101328.81;4981429;28;20186;-70
2024/03/23 02:16:48;;;;;;;22.97;4.80;;;;;;;6.06;100.00;101270.84;4983279;28;20451;-70
2024/03/23 02:19:14;;;;;;;19.50;4.23;;;;;;;6.31;100.00;101301.09;4983344;28;20341;-70
2024/03/23 02:21:39;;;;;;;27.20;4.93;;;;;;;6.32;100.00;101286.78;4984115;28;20236;-70
2024/03/23 02:24:05;;;;;;;18.30;4.53;;;;;;;6.57;100.00;101340.19;4984882;28;20182;-70
2024/03/23 02:26:30;;;;;;;21.40;4.30;;;;;;;6.19;100.00;101280.22;4985838;28;20197;-70
2024/03/23 02:28:56;;;;;;;21.40;4.17;;;;;;;6.47;100.00;101312.81;4997480;28;20674;-71
2024/03/23 02:31:21;;;;;;;21.33;4.80;;;;;;;5.87;100.00;101221.31;4983350;28;20690;-70
2024/03/23 02:33:46;;;;;;;23.30;4.87;;;;;;;6.20;100.00;101261.44;4976197;28;20197;-70
2024/03/23 02:36:12;;;;;;;18.00;4.80;;;;;;;6.67;100.00;101332.06;4984568;28;20228;-70
2024/03/23 02:38:37;;;;;;;23.83;3.70;;;;;;;6.32;100.00;101276.13;4981078;28;20627;-70
2024/03/23 02:41:06;;;;;;;19.80;4.10;;;;;;;5.76;100.00;101202.94;4982816;28;20206;-70
2024/03/23 02:43:31;;;;;;;19.03;3.83;;;;;;;6.62;100.00;101332.53;4981972;28;20198;-70
2024/03/23 02:45:57;;;;;;;24.33;4.30;;;;;;;6.51;100.00;101362.16;4982117;28;20449;-70
2024/03/23 02:48:23;;;;;;;23.03;4.13;;;;;;;6.45;100.00;101301.47;4980400;28;20949;-70
2024/03/23 02:50:49;;;;;;;17.17;3.90;;;;;;;6.47;100.00;101334.13;4995027;28;20198;-70
2024/03/23 02:53:14;;;;;;;19.57;3.90;;;;;;;6.53;100.00;101331.66;4983662;28;20507;-70
2024/03/23 02:55:40;;;;;;;24.63;4.30;;;;;;;6.10;100.00;101252.72;4984110;28;20193;-70
2024/03/23 02:58:05;;;;;;;15.70;4.20;;;;;;;6.25;100.00;101296.41;4985037;28;20182;-70
2024/03/23 03:00:30;;;;;;;24.83;4.37;;;;;;;6.47;100.00;101315.47;4981139;28;20186;-71
2024/03/23 03:02:56;;;;;;;20.73;4.20;;;;;;;6.43;100.00;101314.97;4985974;28;20209;-70
2024/03/23 03:05:21;;;;;;;23.63;4.63;;;;;;;5.68;100.00;101194.06;4984045;28;20196;-71
2024/03/23 03:07:47;;;;;;;25.13;3.80;;;;;;;5.68;100.00;101186.09;4986089;28;20786;-71
2024/03/23 03:10:12;;;;;;;24.27;4.70;;;;;;;5.63;100.00;101211.34;4982827;28;20197;-71
2024/03/23 03:12:38;;;;;;;22.30;4.37;;;;;;;6.16;100.00;101289.34;4982582;28;20217;-71
2024/03/23 03:15:04;;;;;;;14.47;3.33;;;;;;;5.54;100.00;101156.41;4981776;28;20198;-71
2024/03/23 03:17:31;;;;;;;15.90;3.33;;;;;;;6.06;100.00;101251.38;4978876;28;20293;-71
2024/03/23 03:19:56;;;;;;;22.60;3.70;;;;;;;5.65;100.00;101203.22;4979957;28;20453;-70
2024/03/23 03:22:22;;;;;;;17.10;3.77;;;;;;;6.40;100.00;101293.16;4983601;28;20205;-71
2024/03/23 03:24:48;;;;;;;23.53;4.63;;;;;;;6.35;100.00;101285.63;4981438;28;20189;-71
2024/03/23 03:27:13;;;;;;;18.60;3.60;;;;;;;5.82;100.00;101228.91;4983856;28;20530;-70
2024/03/23 03:29:39;;;;;;;20.80;4.20;;;;;;;6.48;100.00;101299.34;4984256;28;20183;-71
2024/03/23 03:32:04;;;;;;;18.53;4.33;;;;;;;6.02;100.00;101245.53;4993681;28;20248;-70
2024/03/23 03:34:30;;;;;;;23.47;4.60;;;;;;;5.58;100.00;101172.88;4975573;28;20550;-71
2024/03/23 03:36:56;;;;;;;18.93;4.37;;;;;;;5.48;100.00;101161.53;4984308;28;21363;-71
2024/03/23 03:39:22;;;;;;;20.40;3.43;;;;;;;6.23;100.00;101278.91;4979521;28;20256;-70
2024/03/23 03:41:48;;;;;;;16.03;4.20;;;;;;;5.54;100.00;101206.13;4980475;28;20473;-70
2024/03/23 03:44:14;;;;;;;20.40;3.87;;;;;;;5.74;100.00;101188.13;4981425;28;20248;-70
2024/03/23 03:46:39;;;;;;;21.10;4.43;;;;;;;6.23;100.00;101287.75;4982799;28;24176;-71
2024/03/23 03:49:07;;;;;;;13.90;3.50;;;;;;;6.37;100.00;101280.97;4977489;28;20690;-71
2024/03/23 03:51:32;;;;;;;20.40;4.50;;;;;;;5.75;100.00;101213.72;4981770;28;20233;-71
2024/03/23 03:53:58;;;;;;;16.40;3.30;;;;;;;5.75;100.00;101237.69;4983387;28;20437;-70
2024/03/23 03:56:23;;;;;;;18.47;4.07;;;;;;;6.02;100.00;101261.50;4991546;28;20658;-70
2024/03/23 03:58:49;;;;;;;20.43;4.17;;;;;;;5.40;100.00;101165.78;4984736;28;20181;-70
2024/03/23 04:01:14;;;;;;;16.43;3.23;;;;;;;6.12;100.00;101245.41;4979910;28;20284;-70
2024/03/23 04:03:43;;;;;;;26.80;4.47;;;;;;;6.37;100.00;101282.81;4985300;28;20865;-70
2024/03/23 04:06:11;;;;;;;31.87;4.20;;;;;;;6.07;100.00;101256.53;4978518;28;20190;-70
2024/03/23 04:08:39;;;;;;;21.37;3.60;;;;;;;5.95;100.00;101230.34;4975605;28;20576;-71
2024/03/23 04:11:04;;;;;;;15.63;3.70;;;;;;;6.25;100.00;101277.78;4982993;28;20964;-70
2024/03/23 04:13:29;;;;;;;18.50;4.03;;;;;;;6.20;100.00;101257.94;4987863;28;20441;-70
2024/03/23 04:15:55;;;;;;;14.27;4.10;;;;;;;6.13;100.00;101259.53;4980830;28;20227;-70
2024/03/23 04:18:21;;;;;;;16.70;3.43;;;;;;;5.50;100.00;101163.03;4994285;28;20189;-71
2024/03/23 04:20:48;;;;;;;20.37;3.83;;;;;;;4.71;100.00;101055.81;4996975;28;20221;-70
2024/03/23 04:23:13;;;;;;;24.17;4.83;;;;;;;5.33;100.00;101137.34;4979347;28;20459;-70
2024/03/23 04:25:39;;;;;;;14.73;3.17;;;;;;;6.14;100.00;101253.25;4985672;28;20503;-70
2024/03/23 04:28:04;;;;;;;20.00;4.07;;;;;;;5.46;100.00;101134.25;4979921;28;20213;-70
2024/03/23 04:30:31;;;;;;;12.30;2.87;;;;;;;6.04;100.00;101248.84;4987585;28;20200;-70
2024/03/23 04:32:58;;;;;;;17.93;3.60;;;;;;;6.20;100.00;101273.91;4994592;28;21215;-71
2024/03/23 04:35:25;;;;;;;16.00;3.20;;;;;;;6.27;100.00;101293.56;4977835;28;20448;-70
2024/03/23 04:37:55;;;;;;;15.50;3.47;;;;;;;6.21;100.00;101262.25;4977228;28;20618;-70
2024/03/23 04:40:21;;;;;;;18.00;3.53;;;;;;;6.09;100.00;101243.06;4986820;28;20441;-70
2024/03/23 04:42:46;;;;;;;22.40;5.00;;;;;;;5.44;100.00;101140.56;4980908;28;21019;-71
2024/03/23 04:45:12;;;;;;;9.73;2.83;;;;;;;6.26;100.00;101292.75;4983246;28;20192;-71
2024/03/23 04:47:38;;;;;;;17.93;3.30;;;;;;;5.91;100.00;101243.09;4986763;28;20232;-71
2024/03/23 04:50:05;;;;;;;20.63;2.60;;;;;;;5.64;100.00;101169.56;4988682;28;20186;-71
2024/03/23 04:52:30;;;;;;;14.37;3.50;;;;;;;5.81;100.00;101237.88;4984039;28;22694;-70
2024/03/23 04:54:55;;;;;;;16.80;3.73;;;;;;;6.14;100.00;101286.03;4985008;28;20447;-70
2024/03/23 04:57:21;;;;;;;15.87;3.00;;;;;;;5.74;100.00;101214.72;4980534;28;20793;-71
2024/03/23 04:59:47;;;;;;;17.97;2.90;;;;;;;5.53;100.00;101164.56;4986642;28;20640;-70
2024/03/23 05:02:13;;;;;;;11.20;2.63;;;;;;;5.86;100.00;101216.13;4984907;28;20219;-71
2024/03/23 05:04:38;;;;;;;18.63;3.50;;;;;;;5.15;100.00;101106.31;4987386;28;20313;-71
2024/03/23 05:07:04;;;;;;;15.73;3.90;;;;;;;5.11;100.00;101102.28;4981968;28;20480;-71
2024/03/23 05:09:30;;;;;;;18.93;3.73;;;;;;;5.19;100.00;101155.53;4985575;28;20639;-70
2024/03/23 05:11:57;;;;;;;15.80;3.00;;;;;;;5.26;100.00;101126.47;4987547;28;20244;-71
2024/03/23 05:14:22;;;;;;;12.33;2.50;;;;;;;6.03;100.00;101271.16;4983097;28;20605;-71
2024/03/23 05:16:48;;;;;;;14.90;3.90;;;;;;;5.29;100.00;101167.88;4983911;28;20459;-70
2024/03/23 05:19:13;;;;;;;14.43;3.20;;;;;;;6.19;100.00;101250.91;4978925;28;20267;-70
2024/03/23 05:21:38;;;;;;;20.07;3.80;;;;;;;5.87;100.00;101201.81;4984649;28;20212;-71
2024/03/23 05:24:04;;;;;;;14.00;3.43;;;;;;;6.14;100.00;101256.75;4986568;28;20194;-71
2024/03/23 05:26:30;;;;;;;19.43;3.70;;;;;;;5.79;100.00;101202.63;4982545;28;20201;-71
2024/03/23 05:28:56;;;;;;;15.67;2.83;;;;;;;6.09;100.00;101241.22;5000770;28;20835;-70
2024/03/23 05:31:25;;;;;;;18.50;3.33;;;;;;;5.95;100.00;101228.50;4998145;28;20468;-71
2024/03/23 05:33:51;;;;;;;17.70;3.70;;;;;;;5.18;100.00;101108.66;4983853;28;20216;-71
2024/03/23 05:36:17;;;;;;;12.50;2.67;;;;;;;5.94;100.00;101236.66;4987428;28;20457;-71
2024/03/23 05:38:43;;;;;;;15.53;2.70;;;;;;;5.93;100.00;101216.31;4982354;28;20190;-71
2024/03/23 05:41:08;;;;;;;22.10;3.60;;;;;;;5.81;100.00;101174.00;4986595;28;20440;-71
2024/03/23 05:43:34;;;;;;;19.70;3.50;;;;;;;5.86;100.00;101254.22;4986178;28;20214;-70
2024/03/23 05:46:01;;;;;;;11.90;2.60;;;;;;;6.01;100.00;101232.38;4984298;28;20214;-71
2024/03/23 05:48:27;;;;;;;16.20;2.83;;;;;;;5.13;100.00;101105.63;4982792;28;20224;-71
2024/03/23 05:50:52;;;;;;;15.33;3.37;;;;;;;5.84;100.00;101210.13;4980688;28;20456;-71
2024/03/23 05:53:22;;;;;;;16.13;3.67;;;;;;;5.98;100.00;101230.84;4987057;28;20444;-70
2024/03/23 05:55:48;;;;;;;;;;;;;;;6.03;100.00;101244.53;4997988;28;20181;-70
2024/03/23 05:58:14;;;;;;;;;;;;;;;6.14;100.00;101237.28;4988920;28;19967;-70
2024/03/23 06:00:40;;;;;;;;;;;;;;;6.11;100.00;101235.75;5001076;28;19921;-71
2024/03/23 06:03:05;;;;;;;13.95;3.00;;;;;;;4.89;100.00;101074.41;4984694;28;20737;-71
2024/03/23 06:05:30;;;;;;;15.70;2.90;;;;;;;6.14;100.00;101231.94;4989131;28;20197;-71
2024/03/23 06:07:56;;;;;;;21.47;3.90;;;;;;;5.70;100.00;101182.28;4980195;28;20179;-70
2024/03/23 06:10:22;;;;;;;15.03;3.50;;;;;;;5.44;100.00;101129.09;4987256;28;20251;-70
2024/03/23 06:12:49;;;;;;;13.30;2.90;;;;;;;5.81;100.00;101203.28;4991855;28;20213;-71
2024/03/23 06:15:14;;;;;;;14.73;3.37;;;;;;;5.91;100.00;101189.88;4983461;28;20532;-70
2024/03/23 06:17:40;;;;;;;18.10;3.47;;;;;;;5.75;100.00;101163.97;4984449;28;20519;-71
2024/03/23 06:20:06;;;;;;;15.63;3.03;;;;;;;6.06;100.00;101208.75;4985103;28;20185;-70
2024/03/23 06:22:32;;;;;;;19.40;4.20;;;;;;;6.11;100.00;101249.91;4984100;28;20217;-70
2024/03/23 06:24:57;;;;;;;11.93;2.30;;;;;;;5.92;100.00;101182.69;4989825;28;20494;-70
2024/03/23 06:27:23;;;;;;;12.90;2.60;;;;;;;5.52;100.00;101104.34;4986603;28;20473;-71
2024/03/23 06:29:48;;;;;;;17.47;3.47;;;;;;;6.25;100.00;101239.63;4983880;28;20186;-70
2024/03/23 06:32:14;;;;;;;18.87;3.00;;;;;;;5.39;100.00;101116.25;4983227;28;20217;-70
2024/03/23 06:34:43;;;;;;;21.27;2.80;;;;;;;6.10;100.00;101180.81;5002781;28;20181;-70
2024/03/23 06:37:09;;;;;;;11.57;2.90;;;;;;;6.04;100.00;101195.59;4982844;28;20190;-70
2024/03/23 06:39:36;;;;;;;18.97;3.30;;;;;;;5.44;100.00;101097.16;5002880;28;20444;-71
2024/03/23 06:42:02;;;;;;;14.90;2.97;;;;;;;5.99;100.00;101186.41;4979736;28;20468;-70
2024/03/23 06:44:28;;;;;;;14.40;3.00;;;;;;;5.56;100.00;101154.44;4990198;28;20968;-70
2024/03/23 06:46:53;;;;;;;14.40;2.87;;;;;;;6.07;100.00;101202.44;4990546;28;20455;-70
2024/03/23 06:49:19;;;;;;;20.80;3.40;;;;;;;5.76;100.00;101130.25;4983728;28;20196;-70
2024/03/23 06:51:45;;;;;;;14.67;3.20;;;;;;;6.16;100.00;101192.63;4988408;28;20221;-70
2024/03/23 06:54:10;;;;;;;13.27;2.27;;;;;;;6.31;100.00;101226.50;4986219;28;20297;-71
2024/03/23 06:56:36;;;;;;;15.43;3.23;;;;;;;6.63;100.00;101248.91;4979268;28;21159;-71
2024/03/23 06:59:01;;;;;;;21.17;3.43;;;;;;;6.11;100.00;101164.66;4979752;28;20243;-70
2024/03/23 07:01:28;;;;;;;16.60;3.47;;;;;;;5.96;100.00;101158.31;4985906;28;20216;-71
2024/03/23 07:03:54;;;;;;;16.83;3.03;;;;;;;5.98;100.00;101150.97;5005427;28;20186;-71
2024/03/23 07:06:19;;;;;;;15.70;3.40;;;;;;;6.27;100.00;101189.69;4989120;28;20425;-70
2024/03/23 07:08:44;;;;;;;16.93;3.00;;;;;;;6.67;100.00;101260.91;4987348;28;20213;-71
2024/03/23 07:11:10;;;;;;;14.70;3.30;;;;;;;6.64;100.00;101252.41;4987309;28;20675;-70
2024/03/23 07:13:35;;;;;;;12.13;2.33;;;;;;;6.75;100.00;101274.28;4980697;28;20221;-71
2024/03/23 07:16:00;;;;;;;15.70;2.33;;;;;;;6.74;100.00;101271.75;4982478;28;20201;-71
2024/03/23 07:18:28;;;;;;;13.93;2.47;;;;;;;6.64;100.00;101266.56;4997647;28;20189;-71
2024/03/23 07:20:56;;;;;;;17.20;3.07;;;;;;;6.33;100.00;101229.84;4982915;28;20655;-71
2024/03/23 07:23:22;;;;;;;11.50;2.40;;;;;;;6.73;100.00;101267.44;4999504;28;20541;-70
2024/03/23 07:25:56;;;;;;;14.33;2.53;;;;;;;6.31;100.00;101239.81;4983034;28;20528;-70
2024/03/23 07:28:22;;;;;;;14.40;4.00;;;;;;;6.43;100.00;101237.69;4983810;28;20225;-71
2024/03/23 07:30:47;;;;;;;16.03;3.10;;;;;;;5.74;100.00;101113.59;4987565;28;20440;-70
2024/03/23 07:33:13;;;;;;;10.77;2.33;;;;;;;6.74;100.00;101267.28;4987519;28;20208;-70
2024/03/23 07:35:38;;;;;;;12.83;2.57;;;;;;;6.75;100.00;101260.94;4987635;28;20231;-71
2024/03/23 07:38:05;;;;;;;13.23;2.83;;;;;;;6.40;100.00;101181.25;4980103;28;20186;-71
2024/03/23 07:40:31;;;;;;;19.20;2.50;;;;;;;6.72;100.00;101247.09;4981391;28;20198;-70
2024/03/23 07:42:56;;;;;;;15.47;2.67;;;;;;;6.97;100.00;101266.63;4979831;28;23908;-71
2024/03/23 07:45:21;;;;;;;10.53;2.57;;;;;;;6.31;100.00;101140.44;4988016;28;20467;-71
2024/03/23 07:47:47;;;;;;;13.33;2.37;;;;;;;6.30;100.00;101115.59;4981447;28;20248;-70
2024/03/23 07:50:12;;;;;;;14.33;2.53;;;;;;;6.88;100.00;101183.13;4986448;28;20669;-71
2024/03/23 07:52:38;;;;;;;16.97;2.93;;;;;;;6.93;100.00;101195.97;5020160;23;20240;-69
2024/03/23 07:55:04;;;;;;;19.60;2.80;;;;;;;7.14;100.00;101246.97;4999329;28;20247;-69
2024/03/23 07:57:29;;;;;;;14.50;2.60;;;;;;;7.29;100.00;101270.31;5002299;28;20213;-68
2024/03/23 07:59:54;;;;;;;16.60;3.27;;;;;;;7.17;100.00;101248.47;4999374;28;20189;-69
2024/03/23 08:02:20;;;;;;;15.33;2.80;;;;;;;7.32;100.00;101254.84;5001869;28;20201;-69
2024/03/23 08:04:45;;;;;;;9.13;2.00;;;;;;;7.34;100.00;101265.31;5015199;28;20562;-69
2024/03/23 08:07:11;;;;;;;16.83;2.80;;;;;;;6.94;100.00;101194.94;4999740;28;20201;-69
2024/03/23 08:09:36;;;;;;;16.70;2.90;;;;;;;7.41;100.00;101239.66;5002913;28;20219;-70
2024/03/23 08:12:02;;;;;;;15.93;3.20;;;;;;;7.72;100.00;101254.94;4998850;28;20295;-69
2024/03/23 08:14:27;;;;;;;29.00;2.90;;;;;;;7.09;100.00;101184.44;5015532;28;20653;-69
2024/03/23 08:16:54;;;;;;;13.60;2.33;;;;;;;7.36;100.00;101220.63;5000335;28;20198;-68
2024/03/23 08:19:20;;;;;;;12.80;3.50;;;;;;;7.67;100.00;101258.13;5003998;28;20250;-68
2024/03/23 08:21:45;;;;;;;15.20;2.37;;;;;;;7.53;100.00;101251.66;5002217;28;20463;-69
2024/03/23 08:24:11;;;;;;;16.03;2.30;;;;;;;7.45;100.00;101284.50;5006250;28;20193;-68
2024/03/23 08:26:37;;;;;;;12.17;2.30;;;;;;;7.57;100.00;101285.00;5007969;28;20199;-70
2024/03/23 08:29:03;;;;;;;8.53;1.67;;;;;;;7.22;100.00;101216.81;5007982;28;20208;-69
2024/03/23 08:31:28;;;;;;;7.50;1.80;;;;;;;7.05;100.00;101201.81;5007375;28;20550;-69
2024/03/23 08:33:54;;;;;;;9.37;1.90;;;;;;;7.34;100.00;101270.66;5007517;28;20455;-69
2024/03/23 08:36:19;;;;;;;10.40;1.77;;;;;;;7.33;100.00;101234.31;5008096;28;20638;-70
2024/03/23 08:38:45;;;;;;;11.03;1.90;;;;;;;7.52;100.00;101287.34;5007922;28;20207;-69
2024/03/23 08:41:11;;;;;;;10.80;2.23;;;;;;;7.67;100.00;101282.16;5010333;28;20258;-70
2024/03/23 08:43:39;;;;;;;11.50;2.20;;;;;;;7.38;100.00;101256.84;5006944;28;20208;-69
2024/03/23 08:46:07;;;;;;;10.17;2.30;;;;;;;7.61;100.00;101281.00;5023373;28;20841;-69
2024/03/23 08:48:35;;;;;;;13.40;2.10;;;;;;;7.57;100.00;101244.94;5003702;28;20980;-67
2024/03/23 08:51:05;;;;;;;10.10;2.43;;;;;;;7.63;100.00;101276.31;5007828;28;20447;-68
2024/03/23 08:53:31;;;;;;;12.90;2.40;;;;;;;7.90;100.00;101251.06;5007925;28;20455;-68
2024/03/23 08:55:57;;;;;;;10.37;2.40;;;;;;;7.72;100.00;101261.13;5000820;28;21137;-67
2024/03/23 08:58:24;;;;;;;10.70;2.13;;;;;;;7.93;100.00;101257.91;5004589;28;20490;-68
2024/03/23 09:00:51;;;;;;;16.33;2.80;;;;;;;7.42;100.00;101207.44;5020437;28;20959;-67
2024/03/23 09:03:19;;;;;;;13.17;2.10;;;;;;;7.88;100.00;101274.44;5006833;28;20445;-68
2024/03/23 09:05:45;;;;;;;14.50;2.13;;;;;;;8.01;100.00;101241.84;5007586;28;20444;-68
2024/03/23 09:08:10;;;;;;;10.23;2.10;;;;;;;7.70;100.00;101181.19;5009639;28;20471;-67
2024/03/23 09:10:39;;;;;;;13.50;2.37;;;;;;;8.23;100.00;101267.00;5010551;28;20524;-67
2024/03/23 09:13:08;;;;;;;17.90;4.30;;;;;;;5.86;100.00;100902.00;5005936;28;20258;-68
2024/03/23 09:15:45;;;;;;;13.90;2.50;;;;;;;7.67;100.00;101212.75;5008259;28;20518;-68
2024/03/23 09:18:10;;;;;;;11.73;2.37;;;;;;;7.91;100.00;101242.03;5026052;28;21040;-68
2024/03/23 09:20:36;;;;;;;9.17;2.00;;;;;;;7.68;100.00;101177.84;5005496;28;20439;-67
2024/03/23 09:23:01;;;;;;;15.03;2.20;;;;;;;8.23;100.00;101264.31;5003532;28;20236;-67
2024/03/23 09:25:26;;;;;;;10.40;1.90;;;;;;;7.77;100.00;101258.78;5003916;28;20827;-67
2024/03/23 09:27:52;;;;;;;9.40;2.63;;;;;;;8.04;100.00;101267.38;5005346;28;20387;-67
2024/03/23 09:30:19;;;;;;;7.83;1.50;;;;;;;7.97;100.00;101269.09;5003722;28;20208;-68
2024/03/23 09:32:45;;;;;;;11.73;2.03;;;;;;;7.56;100.00;101181.06;5018486;28;20300;-68
2024/03/23 09:35:11;;;;;;;10.50;1.93;;;;;;;8.17;100.00;101278.38;4999697;28;20562;-67
2024/03/23 09:37:40;;;;;;;9.93;1.80;;;;;;;8.06;100.00;101281.41;5000453;28;21477;-68
2024/03/23 09:40:12;;;;;;;10.47;3.17;;;;;;;8.06;100.00;101215.44;5001885;28;20531;-68
2024/03/23 09:42:38;;;;;;;10.23;2.10;;;;;;;8.28;100.00;101255.78;5002221;28;20460;-68
2024/03/23 09:45:16;;;;;;;10.03;2.20;;;;;;;7.77;100.00;101205.38;5001068;28;21010;-68
2024/03/23 09:47:42;;;;;;;10.63;2.30;;;;;;;8.25;100.00;101240.94;5019692;28;20660;-68
2024/03/23 09:50:09;;;;;;;22.20;3.27;;;;;;;7.82;100.00;101159.47;4998181;28;20443;-68
2024/03/23 09:52:34;;;;;;;13.83;2.17;;;;;;;7.45;100.00;101102.19;5000998;28;20467;-68
2024/03/23 09:55:00;;;;;;;13.23;2.40;;;;;;;8.13;100.00;101168.34;5000517;28;20666;-67
2024/03/23 09:57:25;;;;;;;13.10;2.40;;;;;;;7.53;100.00;101082.66;5006004;28;20196;-67
2024/03/23 09:59:51;;;;;;;14.97;2.50;;;;;;;8.49;100.00;101161.66;5006807;28;20188;-67
2024/03/23 10:02:17;;;;;;;12.83;2.40;;;;;;;8.62;100.00;101175.28;4998573;28;20233;-68
2024/03/23 10:04:44;;;;;;;10.50;1.80;;;;;;;8.30;100.00;101331.25;5007396;28;20243;-67
2024/03/23 10:07:14;;;;;;;7.20;1.30;;;;;;;5.89;100.00;101245.91;5007503;28;20471;-68
2024/03/23 10:09:40;;;;;;;5.77;1.60;;;;;;;6.75;100.00;101412.06;4999383;28;20937;-68
2024/03/23 10:12:16;;;;;;;5.20;1.00;;;;;;;6.37;100.00;101424.88;5005215;28;20878;-69
2024/03/23 10:14:41;;;;;;;5.50;0.97;;;;;;;6.45;100.00;101421.41;5001327;28;20878;-70
2024/03/23 10:17:20;;;;;;;10.40;1.33;;;;;;;6.45;100.00;101450.72;5003829;28;20463;-71
2024/03/23 10:19:49;;;;;;;11.50;1.40;;;;;;;6.43;100.00;101466.03;5001687;28;20276;-71
2024/03/23 10:22:17;;;;;;;8.73;1.67;;;;;;;6.41;100.00;101468.00;5005559;28;20463;-70
2024/03/23 10:24:42;;;;;;;8.67;1.90;;;;;;;6.37;100.00;101477.31;5001956;28;20491;-70
2024/03/23 10:27:08;;;;;;;;;;;;;;;6.40;100.00;101477.84;5005681;28;20448;-71
2024/03/23 10:29:36;;;;;;;;;;;;;;;6.42;100.00;101497.19;5007993;28;19910;-70
2024/03/23 10:32:07;;;;;;;;;;;;;;;6.62;100.00;101500.47;5003483;28;19939;-71
2024/03/23 10:34:35;;;;;;;;;;;;;;;6.77;100.00;101511.41;5002784;28;19917;-71
2024/03/23 10:37:03;;;;;;;13.40;2.40;;;;;;;6.13;100.00;101353.59;5004588;28;19917;-69
2024/03/23 10:39:33;;;;;;;7.40;1.70;;;;;;;6.22;100.00;101341.16;5022348;28;20439;-68
2024/03/23 10:42:03;;;;;;;7.33;1.33;;;;;;;7.22;100.00;101523.63;5003340;28;20456;-70
2024/03/23 10:44:30;;;;;;;12.50;2.27;;;;;;;7.36;100.00;101515.03;5001807;28;20545;-69
2024/03/23 10:47:00;;;;;;;11.50;2.47;;;;;;;7.37;100.00;101500.66;5002169;28;20450;-69
2024/03/23 10:49:29;;;;;;;11.00;2.10;;;;;;;7.31;100.00;101453.28;5004092;28;20448;-69
2024/03/23 10:51:58;;;;;;;12.07;2.00;;;;;;;8.30;100.00;101500.50;4998843;28;20472;-68
2024/03/23 10:54:25;;;;;;;10.37;1.93;;;;;;;8.15;100.00;101519.03;5014457;28;21267;-69
2024/03/23 10:56:59;;;;;;;10.17;2.20;;;;;;;8.14;100.00;101484.47;4992050;28;20448;-69
2024/03/23 10:59:26;;;;;;;8.10;2.17;;;;;;;7.30;100.00;101432.94;4985018;28;20821;-69
2024/03/23 11:01:59;;;;;;;11.83;2.33;;;;;;;7.66;100.00;101518.94;4988721;28;20492;-70
2024/03/23 11:04:34;;;;;;;9.03;1.77;;;;;;;7.03;100.00;101492.72;4998892;28;20470;-69
2024/03/23 11:07:01;;;;;;;15.60;2.70;;;;;;;6.84;100.00;101476.94;4991458;28;20481;-70
2024/03/23 11:09:46;;;;;;;11.43;2.40;;;;;;;7.07;100.00;101495.91;4997581;28;20534;-69
2024/03/23 11:12:23;;;;;;;12.20;2.43;;;;;;;7.16;100.00;101497.59;4999099;28;20459;-69
2024/03/23 11:14:51;;;;;;;18.27;3.17;;;;;;;6.31;100.00;101372.22;5000129;28;20818;-69